Time;durP1;ratioP1;P1;durP2;ratioP2;P2;SDS_P1;SDS_P2;PMS_P1;PMS_P2;Temp;Humidity;BMP_temperature;BMP_pressure;BME280_temperature;BME280_humidity;BME280_pressure;Samples;Min_cycle;Max_cycle;Signal;HPM_P1;HPM_P2
2020/12/16 00:02:25;;;;;;;29.23;15.82;;;11.90;99.90;;;;;;4994221;28;20035;-71
2020/12/16 00:04:51;;;;;;;30.75;16.38;;;11.90;99.90;;;;;;4994907;28;20064;-72
2020/12/16 00:07:17;;;;;;;31.40;17.15;;;11.90;99.90;;;;;;4994856;28;20369;-73
2020/12/16 00:09:44;;;;;;;30.55;15.90;;;11.90;99.90;;;;;;4993717;28;20053;-73
2020/12/16 00:12:10;;;;;;;27.33;16.33;;;11.90;99.90;;;;;;4996415;28;20022;-71
2020/12/16 00:14:35;;;;;;;33.42;18.35;;;11.90;99.90;;;;;;4994751;28;20464;-73
2020/12/16 00:17:01;;;;;;;31.23;17.73;;;11.70;99.90;;;;;;4994912;28;20042;-71
2020/12/16 00:19:27;;;;;;;34.05;18.25;;;11.80;99.90;;;;;;4994659;28;20042;-72
2020/12/16 00:21:52;;;;;;;32.60;17.75;;;11.80;99.90;;;;;;4994578;28;20345;-73
2020/12/16 00:24:18;;;;;;;38.75;17.88;;;11.90;99.90;;;;;;4996124;28;20027;-72
2020/12/16 00:26:44;;;;;;;34.15;17.52;;;11.90;99.90;;;;;;4994555;28;20050;-72
2020/12/16 00:29:12;;;;;;;33.60;18.52;;;11.90;99.90;;;;;;4994441;28;20108;-71
2020/12/16 00:31:38;;;;;;;29.48;17.20;;;11.80;99.90;;;;;;4994470;28;20469;-72
2020/12/16 00:34:06;;;;;;;29.33;16.92;;;11.90;99.90;;;;;;4993546;28;20030;-72
2020/12/16 00:36:39;;;;;;;31.75;18.20;;;11.80;99.90;;;;;;4994362;28;20026;-72
2020/12/16 00:39:06;;;;;;;31.40;18.13;;;11.80;99.90;;;;;;4996164;28;20027;-72
2020/12/16 00:41:32;;;;;;;36.38;18.70;;;11.80;99.90;;;;;;4994003;28;20045;-72
2020/12/16 00:43:59;;;;;;;33.97;17.90;;;11.80;99.90;;;;;;4994297;28;20412;-71
2020/12/16 00:46:25;;;;;;;28.77;16.10;;;11.80;99.90;;;;;;4994163;28;20121;-72
2020/12/16 00:48:51;;;;;;;30.77;16.30;;;11.80;99.90;;;;;;4993949;28;20420;-72
2020/12/16 00:51:17;;;;;;;32.22;17.67;;;11.80;99.90;;;;;;4995595;28;20030;-71
2020/12/16 00:53:42;;;;;;;30.52;17.58;;;11.80;99.90;;;;;;4993957;28;20078;-72
2020/12/16 00:56:08;;;;;;;30.80;17.70;;;11.80;99.90;;;;;;4993792;28;20395;-72
2020/12/16 00:58:33;;;;;;;29.95;17.60;;;11.80;99.90;;;;;;4992814;28;20420;-70
2020/12/16 01:00:59;;;;;;;33.78;18.27;;;11.80;99.90;;;;;;4993857;28;20117;-72
2020/12/16 01:03:25;;;;;;;29.65;16.85;;;11.80;99.90;;;;;;4992846;28;20023;-73
2020/12/16 01:05:50;;;;;;;29.55;17.08;;;11.90;99.90;;;;;;4995438;28;20027;-73
2020/12/16 01:08:16;;;;;;;31.73;17.13;;;11.90;99.90;;;;;;4993615;28;20452;-72
2020/12/16 01:10:42;;;;;;;34.97;17.85;;;11.80;99.90;;;;;;4993723;28;20046;-71
2020/12/16 01:13:08;;;;;;;29.55;16.80;;;11.80;99.90;;;;;;4993739;28;20476;-73
2020/12/16 01:15:34;;;;;;;27.40;16.33;;;11.80;99.90;;;;;;4993198;28;20105;-71
2020/12/16 01:17:59;;;;;;;32.50;17.73;;;11.80;99.90;;;;;;4995034;28;20030;-71
2020/12/16 01:20:25;;;;;;;29.70;16.50;;;11.80;99.90;;;;;;4993696;28;20045;-72
2020/12/16 01:22:51;;;;;;;29.95;15.68;;;11.70;99.90;;;;;;4993620;28;20078;-71
2020/12/16 01:25:20;;;;;;;29.75;15.52;;;11.70;99.90;;;;;;4993563;28;20077;-73
2020/12/16 01:27:53;;;;;;;31.02;16.38;;;11.80;99.90;;;;;;4993346;28;20116;-73
2020/12/16 01:30:19;;;;;;;32.47;16.35;;;11.70;99.90;;;;;;4993721;28;20029;-71
2020/12/16 01:32:45;;;;;;;29.10;16.08;;;11.80;99.90;;;;;;4993390;28;20042;-71
2020/12/16 01:35:11;;;;;;;27.45;16.23;;;11.70;99.90;;;;;;4993310;28;20037;-72
2020/12/16 01:37:37;;;;;;;29.40;16.77;;;11.60;99.90;;;;;;4993305;28;20511;-73
2020/12/16 01:40:05;;;;;;;32.03;17.20;;;11.50;99.90;;;;;;4992366;28;20053;-70
2020/12/16 01:42:30;;;;;;;30.88;17.02;;;11.60;99.90;;;;;;4992280;28;20057;-71
2020/12/16 01:44:56;;;;;;;32.38;17.33;;;11.50;99.90;;;;;;4994591;28;20041;-72
2020/12/16 01:47:22;;;;;;;27.83;15.88;;;11.60;99.90;;;;;;4992805;28;20101;-71
2020/12/16 01:49:48;;;;;;;31.33;15.60;;;11.60;99.90;;;;;;4992934;28;20048;-73
2020/12/16 01:52:20;;;;;;;29.55;16.23;;;11.50;99.90;;;;;;4992989;28;20035;-72
2020/12/16 01:54:46;;;;;;;36.55;18.90;;;11.50;99.90;;;;;;4992742;28;20362;-72
2020/12/16 01:57:17;;;;;;;39.97;20.80;;;11.50;99.90;;;;;;4993532;28;20030;-73
2020/12/16 01:59:44;;;;;;;33.00;17.35;;;11.50;99.90;;;;;;4992876;28;20069;-72
2020/12/16 02:02:14;;;;;;;36.63;18.90;;;11.50;99.90;;;;;;4992799;28;20460;-70
2020/12/16 02:04:43;;;;;;;35.17;18.80;;;11.50;99.90;;;;;;4992786;28;20046;-71
2020/12/16 02:07:10;;;;;;;35.42;19.08;;;11.50;99.90;;;;;;4992808;28;20026;-70
2020/12/16 02:09:41;;;;;;;40.53;20.50;;;11.40;99.90;;;;;;4992662;28;20031;-71
2020/12/16 02:12:18;;;;;;;30.85;16.58;;;11.40;99.90;;;;;;4994279;28;20038;-71
2020/12/16 02:14:43;;;;;;;29.83;16.73;;;11.40;99.90;;;;;;4992727;28;20030;-71
2020/12/16 02:17:10;;;;;;;32.75;17.70;;;11.30;99.90;;;;;;4992580;28;20031;-72
2020/12/16 02:19:40;;;;;;;34.72;18.92;;;11.30;99.90;;;;;;4992810;28;20030;-72
2020/12/16 02:22:07;;;;;;;30.90;17.15;;;11.20;99.90;;;;;;4987015;28;20366;-71
2020/12/16 02:24:33;;;;;;;28.27;16.33;;;11.20;99.90;;;;;;4972407;28;20031;-72
2020/12/16 02:26:59;;;;;;;27.55;16.73;;;11.10;99.90;;;;;;4994375;28;20338;-70
2020/12/16 02:29:25;;;;;;;27.42;15.18;;;11.10;99.90;;;;;;4992555;28;20042;-71
2020/12/16 02:31:53;;;;;;;25.65;14.30;;;11.00;99.90;;;;;;4992600;28;20038;-70
2020/12/16 02:34:19;;;;;;;23.17;13.10;;;10.90;99.90;;;;;;4992415;28;20030;-71
2020/12/16 02:36:45;;;;;;;23.48;13.30;;;10.80;99.90;;;;;;4991498;28;20455;-71
2020/12/16 02:39:10;;;;;;;26.08;15.07;;;10.70;99.90;;;;;;4993086;28;20057;-69
2020/12/16 02:41:36;;;;;;;27.50;15.48;;;10.60;99.90;;;;;;4992456;28;20487;-71
2020/12/16 02:44:02;;;;;;;24.45;13.98;;;10.60;99.90;;;;;;4992504;28;20054;-70
2020/12/16 02:46:27;;;;;;;27.58;14.18;;;10.60;99.90;;;;;;4992108;28;20413;-71
2020/12/16 02:48:53;;;;;;;23.02;13.27;;;10.50;99.90;;;;;;4992246;28;20049;-70
2020/12/16 02:51:19;;;;;;;18.70;11.60;;;10.30;99.90;;;;;;4993858;28;20030;-70
2020/12/16 02:53:44;;;;;;;15.23;9.95;;;10.30;99.90;;;;;;4992213;28;20046;-71
2020/12/16 02:56:10;;;;;;;25.02;12.18;;;10.30;99.90;;;;;;4992267;28;20046;-72
2020/12/16 02:58:44;;;;;;;28.05;14.68;;;10.20;99.90;;;;;;4993558;28;20334;-71
2020/12/16 03:01:09;;;;;;;15.90;9.70;;;10.20;99.90;;;;;;4996284;28;20172;-71
2020/12/16 03:03:35;;;;;;;16.52;10.45;;;10.10;99.90;;;;;;4996067;28;20113;-71
2020/12/16 03:06:01;;;;;;;24.98;11.60;;;10.00;99.90;;;;;;4997363;28;20026;-71
2020/12/16 03:08:26;;;;;;;23.48;12.02;;;10.00;99.90;;;;;;4996169;28;20041;-71
2020/12/16 03:10:52;;;;;;;13.45;8.00;;;9.90;99.90;;;;;;4995987;28;20035;-70
2020/12/16 03:13:17;;;;;;;15.35;7.75;;;9.90;99.90;;;;;;4995944;28;20054;-70
2020/12/16 03:15:43;;;;;;;16.95;9.52;;;9.80;99.90;;;;;;4995911;28;20344;-70
2020/12/16 03:18:09;;;;;;;19.75;10.95;;;9.70;99.90;;;;;;4997378;28;20022;-70
2020/12/16 03:20:34;;;;;;;26.45;14.20;;;9.70;99.90;;;;;;4995972;28;20097;-69
2020/12/16 03:23:00;;;;;;;25.83;13.55;;;9.70;99.90;;;;;;4995758;28;20325;-71
2020/12/16 03:25:26;;;;;;;23.90;13.57;;;9.60;99.90;;;;;;4995860;28;20456;-71
2020/12/16 03:27:51;;;;;;;23.83;13.80;;;9.70;99.90;;;;;;4995698;28;20038;-70
2020/12/16 03:30:17;;;;;;;29.70;15.65;;;9.70;99.90;;;;;;4997053;28;20361;-71
2020/12/16 03:32:43;;;;;;;26.92;14.68;;;9.80;99.90;;;;;;4994680;28;20034;-71
2020/12/16 03:35:08;;;;;;;25.30;13.25;;;9.70;99.90;;;;;;4995645;28;20057;-70
2020/12/16 03:37:34;;;;;;;28.35;14.25;;;9.70;99.90;;;;;;4995302;28;20084;-71
2020/12/16 03:40:00;;;;;;;24.63;14.25;;;9.70;99.90;;;;;;4995161;28;20453;-71
2020/12/16 03:42:25;;;;;;;24.30;13.80;;;9.70;99.90;;;;;;4995452;28;20038;-71
2020/12/16 03:44:51;;;;;;;22.50;13.18;;;9.60;99.90;;;;;;4996724;28;20460;-71
2020/12/16 03:47:16;;;;;;;24.55;12.65;;;9.60;99.90;;;;;;4995465;28;20056;-70
2020/12/16 03:49:42;;;;;;;18.30;11.32;;;9.60;99.90;;;;;;4995212;28;20046;-71
2020/12/16 03:52:08;;;;;;;16.88;10.82;;;9.60;99.90;;;;;;4995320;28;20026;-70
2020/12/16 03:54:33;;;;;;;14.50;9.27;;;9.40;99.90;;;;;;4995073;28;20133;-71
2020/12/16 03:56:59;;;;;;;16.63;10.23;;;9.30;99.90;;;;;;4996638;28;20125;-71
2020/12/16 03:59:25;;;;;;;14.75;9.32;;;9.20;99.90;;;;;;4995212;28;20070;-70
2020/12/16 04:01:53;;;;;;;16.10;10.40;;;9.10;99.90;;;;;;4994137;28;20412;-70
2020/12/16 04:04:19;;;;;;;16.55;10.38;;;9.10;99.90;;;;;;4994254;28;20109;-70
2020/12/16 04:06:44;;;;;;;15.20;9.57;;;9.20;99.90;;;;;;4993914;28;20114;-71
2020/12/16 04:09:12;;;;;;;15.73;9.13;;;9.20;99.90;;;;;;4996207;28;20022;-69
2020/12/16 04:11:38;;;;;;;17.05;9.90;;;9.20;99.90;;;;;;4994830;28;20065;-69
2020/12/16 04:14:04;;;;;;;15.82;9.90;;;9.10;99.90;;;;;;4995025;28;20038;-70
2020/12/16 04:16:30;;;;;;;17.88;11.00;;;9.00;99.90;;;;;;4994815;28;20093;-69
2020/12/16 04:18:55;;;;;;;20.30;10.82;;;9.00;99.90;;;;;;4994816;28;20085;-70
2020/12/16 04:21:21;;;;;;;18.02;10.52;;;9.00;99.90;;;;;;4996256;28;20037;-71
2020/12/16 04:23:47;;;;;;;16.90;10.18;;;9.00;99.90;;;;;;4994872;28;20472;-70
2020/12/16 04:26:13;;;;;;;18.50;11.63;;;9.00;99.90;;;;;;4994494;28;20460;-70
2020/12/16 04:28:39;;;;;;;21.63;12.20;;;8.90;99.90;;;;;;4994642;28;20034;-70
2020/12/16 04:31:07;;;;;;;25.33;13.50;;;8.90;99.90;;;;;;4994591;28;20041;-70
2020/12/16 04:33:33;;;;;;;20.83;11.85;;;9.00;99.90;;;;;;4993382;28;20445;-69
2020/12/16 04:35:59;;;;;;;21.23;11.25;;;9.10;99.90;;;;;;4994971;28;20033;-69
2020/12/16 04:38:25;;;;;;;24.25;12.57;;;9.00;99.90;;;;;;4993567;28;20034;-70
2020/12/16 04:40:51;;;;;;;24.85;12.27;;;9.10;99.90;;;;;;4994332;28;20113;-71
2020/12/16 04:43:22;;;;;;;30.15;14.35;;;9.10;99.90;;;;;;4994331;28;20037;-70
2020/12/16 04:45:49;;;;;;;28.27;15.52;;;9.10;99.90;;;;;;4994395;28;20034;-70
2020/12/16 04:48:16;;;;;;;30.77;15.35;;;9.10;99.90;;;;;;4995653;28;20369;-72
2020/12/16 04:50:44;;;;;;;26.85;13.63;;;9.40;99.90;;;;;;4993160;28;20050;-69
2020/12/16 04:53:19;;;;;;;28.05;14.63;;;9.20;99.90;;;;;;4994107;28;20130;-71
2020/12/16 04:55:46;;;;;;;22.27;13.30;;;9.10;99.90;;;;;;4994181;28;20117;-70
2020/12/16 04:58:12;;;;;;;28.50;14.52;;;9.20;99.90;;;;;;4994046;28;20045;-71
2020/12/16 05:00:38;;;;;;;31.98;15.20;;;9.20;99.90;;;;;;4993797;28;20105;-71
2020/12/16 05:03:06;;;;;;;28.85;14.73;;;9.20;99.90;;;;;;4995366;28;20027;-69
2020/12/16 05:05:32;;;;;;;;;;;9.20;99.90;;;;;;4994369;28;20034;-71
2020/12/16 05:08:07;;;;;;;27.00;13.13;;;9.20;99.90;;;;;;4994027;28;19914;-70
2020/12/16 05:10:35;;;;;;;22.50;12.70;;;9.20;99.90;;;;;;4992659;28;20420;-70
2020/12/16 05:13:15;;;;;;;31.35;15.02;;;9.20;99.90;;;;;;4993786;28;20109;-70
2020/12/16 05:15:43;;;;;;;29.50;14.82;;;9.20;99.90;;;;;;4993320;28;20034;-70
2020/12/16 05:18:16;;;;;;;28.15;14.73;;;9.30;99.90;;;;;;4995071;28;20027;-70
2020/12/16 05:20:51;;;;;;;23.73;11.90;;;9.10;99.90;;;;;;4992909;28;20038;-70
2020/12/16 05:23:18;;;;;;;20.92;12.40;;;9.10;99.90;;;;;;4993599;28;20093;-71
2020/12/16 05:26:09;;;;;;;30.40;15.05;;;9.10;99.90;;;;;;4993804;28;20062;-70
2020/12/16 05:28:49;;;;;;;26.33;14.95;;;9.10;99.90;;;;;;4993470;28;20041;-71
2020/12/16 05:31:15;;;;;;;28.05;13.63;;;9.20;99.90;;;;;;4993260;28;20034;-71
2020/12/16 05:33:47;;;;;;;28.90;15.80;;;9.10;99.90;;;;;;4992922;28;20106;-70
2020/12/16 05:36:30;;;;;;;32.13;15.95;;;9.20;99.90;;;;;;4993718;28;20081;-70
2020/12/16 05:38:57;;;;;;;25.35;12.65;;;9.10;99.90;;;;;;4993574;28;20054;-71
2020/12/16 05:41:31;;;;;;;26.35;13.93;;;9.10;99.90;;;;;;4992283;28;20057;-71
2020/12/16 05:44:20;;;;;;;23.23;12.52;;;9.00;99.90;;;;;;4993279;28;20472;-70
2020/12/16 05:46:50;;;;;;;22.45;12.02;;;9.00;99.90;;;;;;4992925;28;20038;-71
2020/12/16 05:49:27;;;;;;;19.90;11.13;;;8.90;99.90;;;;;;4992976;28;20042;-72
2020/12/16 05:52:01;;;;;;;22.95;11.25;;;8.90;99.90;;;;;;4992993;28;20026;-70
2020/12/16 05:54:28;;;;;;;27.90;13.70;;;8.90;99.90;;;;;;4992920;28;20161;-71
2020/12/16 05:57:24;;;;;;;33.25;16.92;;;8.80;99.90;;;;;;4994399;28;20026;-71
2020/12/16 06:00:06;;;;;;;38.73;19.10;;;8.80;99.90;;;;;;4993304;28;20042;-71
2020/12/16 06:02:37;;;;;;;34.53;17.48;;;8.90;99.90;;;;;;4992827;28;20048;-70
2020/12/16 06:05:06;;;;;;;25.17;13.43;;;8.90;99.90;;;;;;4992696;28;20026;-71
2020/12/16 06:07:32;;;;;;;26.48;13.90;;;8.90;99.90;;;;;;4992856;28;20057;-70
2020/12/16 06:09:58;;;;;;;36.20;17.63;;;8.90;99.90;;;;;;4992791;28;20482;-71
2020/12/16 06:12:28;;;;;;;28.80;14.85;;;9.00;99.90;;;;;;4992829;28;20516;-69
2020/12/16 06:15:04;;;;;;;24.58;12.77;;;8.90;99.90;;;;;;4994304;28;20019;-70
2020/12/16 06:17:35;;;;;;;23.20;11.68;;;8.80;99.90;;;;;;4992718;28;20061;-71
2020/12/16 06:20:04;;;;;;;19.45;10.10;;;8.70;99.90;;;;;;4992546;28;20062;-71
2020/12/16 06:22:33;;;;;;;23.65;12.73;;;8.70;99.90;;;;;;4992576;28;20532;-71
2020/12/16 06:25:04;;;;;;;26.02;13.10;;;8.70;99.90;;;;;;4992457;28;20035;-71
2020/12/16 06:27:36;;;;;;;22.73;12.05;;;8.70;99.90;;;;;;4992569;28;20072;-71
2020/12/16 06:30:04;;;;;;;17.17;10.00;;;8.70;99.90;;;;;;4993977;28;20040;-70
2020/12/16 06:32:41;;;;;;;22.70;11.60;;;8.70;99.90;;;;;;4994703;28;20031;-70
2020/12/16 06:35:13;;;;;;;15.37;8.90;;;8.70;99.90;;;;;;4996649;28;20039;-71
2020/12/16 06:37:39;;;;;;;22.13;11.45;;;8.50;99.90;;;;;;4996518;28;20034;-71
2020/12/16 06:40:04;;;;;;;25.10;13.23;;;8.40;99.90;;;;;;4996690;28;20022;-70
2020/12/16 06:42:33;;;;;;;23.52;13.00;;;8.30;99.90;;;;;;4996294;28;20030;-70
2020/12/16 06:45:13;;;;;;;28.27;15.10;;;8.30;99.90;;;;;;4997816;28;20018;-70
2020/12/16 06:47:39;;;;;;;32.85;17.00;;;8.40;99.90;;;;;;4996486;28;20337;-69
2020/12/16 06:50:22;;;;;;;33.95;17.27;;;8.50;99.90;;;;;;4996321;28;20125;-70
2020/12/16 06:52:51;;;;;;;38.78;18.52;;;8.50;99.90;;;;;;4996220;28;20034;-69
2020/12/16 06:55:17;;;;;;;32.10;16.77;;;8.60;99.90;;;;;;4995952;28;20361;-69
2020/12/16 06:57:49;;;;;;;31.27;16.23;;;8.60;99.90;;;;;;4995702;28;20106;-69
2020/12/16 07:00:23;;;;;;;33.83;16.65;;;8.60;99.90;;;;;;4997605;28;20030;-71
2020/12/16 07:02:50;;;;;;;32.83;16.15;;;8.60;99.90;;;;;;4996258;28;20054;-71
2020/12/16 07:05:40;;;;;;;26.30;14.30;;;8.50;99.90;;;;;;4996172;28;20045;-70
2020/12/16 07:08:06;;;;;;;24.85;13.45;;;8.50;99.90;;;;;;4995797;28;20038;-70
2020/12/16 07:10:34;;;;;;;25.55;13.10;;;8.30;99.90;;;;;;4995980;28;20046;-71
2020/12/16 07:13:13;;;;;;;26.63;14.00;;;8.20;99.90;;;;;;4995957;28;20030;-70
2020/12/16 07:15:46;;;;;;;27.45;13.73;;;8.20;99.90;;;;;;5003438;28;20026;-70
2020/12/16 07:18:45;;;;;;;24.75;14.32;;;8.20;99.90;;;;;;5011628;28;20025;-70
2020/12/16 07:21:11;;;;;;;25.42;13.73;;;8.20;99.90;;;;;;4992531;28;20034;-72
2020/12/16 07:23:52;;;;;;;24.55;12.55;;;8.20;99.90;;;;;;4991200;28;20058;-72
2020/12/16 07:26:46;;;;;;;34.88;15.43;;;8.20;99.90;;;;;;4894363;28;20342;-70
2020/12/16 07:29:19;;;;;;;29.92;14.80;;;8.20;99.90;;;;;;4949045;28;20522;-70
2020/12/16 07:31:55;;;;;;;29.73;15.38;;;8.10;99.90;;;;;;4950499;28;20093;-71
2020/12/16 07:34:21;;;;;;;28.30;14.48;;;8.10;99.90;;;;;;5004541;28;20110;-70
2020/12/16 07:36:53;;;;;;;27.50;13.82;;;8.10;99.90;;;;;;5003469;28;20038;-70
2020/12/16 07:39:19;;;;;;;28.92;13.95;;;8.10;99.90;;;;;;5008780;28;20026;-70
2020/12/16 07:41:45;;;;;;;26.88;14.25;;;8.00;99.90;;;;;;5014711;28;20468;-71
2020/12/16 07:44:11;;;;;;;31.90;14.98;;;8.10;99.90;;;;;;5014171;28;20137;-71
2020/12/16 07:46:37;;;;;;;24.55;14.52;;;8.00;99.90;;;;;;5014917;28;20434;-71
2020/12/16 07:49:03;;;;;;;22.58;12.88;;;8.00;99.90;;;;;;5014896;28;20456;-71
2020/12/16 07:51:29;;;;;;;29.10;14.85;;;8.10;99.90;;;;;;5014711;28;20034;-70
2020/12/16 07:53:54;;;;;;;27.77;14.20;;;8.20;99.90;;;;;;5015907;28;20514;-70
2020/12/16 07:56:20;;;;;;;23.27;12.95;;;8.20;99.90;;;;;;5014480;28;20099;-72
2020/12/16 07:58:46;;;;;;;24.38;13.25;;;8.20;99.90;;;;;;5014467;28;20355;-75
2020/12/16 08:01:17;;;;;;;25.05;13.40;;;8.10;99.90;;;;;;5013279;28;20062;-76
2020/12/16 08:03:44;;;;;;;23.15;12.55;;;8.10;99.90;;;;;;5014593;28;20022;-74
2020/12/16 08:06:10;;;;;;;22.77;11.45;;;8.10;99.90;;;;;;5015999;28;20037;-73
2020/12/16 08:08:55;;;;;;;18.15;11.13;;;8.20;99.90;;;;;;5014298;28;20416;-72
2020/12/16 08:11:26;;;;;;;22.90;13.50;;;8.20;99.90;;;;;;5013017;28;20046;-70
2020/12/16 08:14:02;;;;;;;20.88;12.15;;;8.20;99.90;;;;;;5014271;28;20038;-71
2020/12/16 08:16:27;;;;;;;23.55;13.55;;;8.20;99.90;;;;;;5013355;28;20034;-72
2020/12/16 08:18:53;;;;;;;25.08;14.20;;;8.20;99.90;;;;;;5014298;28;20409;-72
2020/12/16 08:21:23;;;;;;;33.38;15.57;;;8.10;99.90;;;;;;5015516;28;20049;-72
2020/12/16 08:23:50;;;;;;;23.98;12.82;;;8.20;99.90;;;;;;5014237;28;20034;-71
2020/12/16 08:26:17;;;;;;;23.17;12.38;;;8.10;99.90;;;;;;5014155;28;20042;-75
2020/12/16 08:28:43;;;;;;;24.27;12.95;;;8.10;99.90;;;;;;5013969;28;20034;-73
2020/12/16 08:31:09;;;;;;;22.13;13.68;;;8.10;99.90;;;;;;5014142;28;20059;-72
2020/12/16 08:33:37;;;;;;;21.30;12.35;;;8.10;99.90;;;;;;5012613;28;20022;-70
2020/12/16 08:36:05;;;;;;;22.75;12.75;;;8.20;99.90;;;;;;5015597;28;20026;-72
2020/12/16 08:38:38;;;;;;;21.55;12.40;;;8.20;99.90;;;;;;5013890;28;20033;-72
2020/12/16 08:41:06;;;;;;;20.90;11.55;;;8.30;99.90;;;;;;5013702;28;20038;-73
2020/12/16 08:43:37;;;;;;;19.10;11.73;;;8.20;99.90;;;;;;5012520;28;20459;-71
2020/12/16 08:46:14;;;;;;;23.90;13.05;;;8.20;99.90;;;;;;5013813;28;20049;-72
2020/12/16 08:49:10;;;;;;;22.17;11.55;;;8.10;99.90;;;;;;5012062;28;20026;-72
2020/12/16 08:51:40;;;;;;;21.70;12.75;;;8.20;99.90;;;;;;5010790;28;20069;-71
2020/12/16 08:54:17;;;;;;;23.42;12.60;;;8.40;99.90;;;;;;5014853;28;20110;-72
2020/12/16 08:56:51;;;;;;;21.05;12.55;;;8.60;99.90;;;;;;5011017;28;20034;-71
2020/12/16 08:59:23;;;;;;;20.33;12.82;;;8.70;99.90;;;;;;5013247;28;20542;-72
2020/12/16 09:01:52;;;;;;;20.17;12.20;;;8.70;99.90;;;;;;5013392;28;20046;-75
2020/12/16 09:04:23;;;;;;;14.35;9.45;;;8.80;99.90;;;;;;5013585;28;20030;-74
2020/12/16 09:07:11;;;;;;;16.10;10.15;;;8.70;99.90;;;;;;5012304;28;20037;-72
2020/12/16 09:09:58;;;;;;;25.85;14.52;;;8.70;99.90;;;;;;5013459;28;20033;-74
2020/12/16 09:12:24;;;;;;;30.53;15.07;;;8.90;99.90;;;;;;5013127;28;20090;-71
2020/12/16 09:14:55;;;;;;;27.58;15.30;;;9.10;99.90;;;;;;5014707;28;20266;-71
2020/12/16 09:17:25;;;;;;;25.92;13.95;;;9.20;99.90;;;;;;5011860;28;20184;-71
2020/12/16 09:19:51;;;;;;;23.08;13.18;;;9.20;99.90;;;;;;5013141;28;20052;-71
2020/12/16 09:22:26;;;;;;;25.38;14.50;;;9.50;99.90;;;;;;5012927;28;20045;-72
2020/12/16 09:24:52;;;;;;;29.17;14.93;;;9.30;99.90;;;;;;5013073;28;20509;-72
2020/12/16 09:27:18;;;;;;;25.00;15.02;;;9.50;99.90;;;;;;5014371;28;20160;-73
2020/12/16 09:29:46;;;;;;;26.42;13.82;;;9.50;99.90;;;;;;5012736;28;20128;-72
2020/12/16 09:32:19;;;;;;;24.73;14.18;;;9.70;99.90;;;;;;5012689;28;20482;-70
2020/12/16 09:34:50;;;;;;;23.35;13.65;;;9.80;99.90;;;;;;5012666;28;20424;-69
2020/12/16 09:37:17;;;;;;;26.05;14.27;;;9.80;99.90;;;;;;5012934;28;20038;-70
2020/12/16 09:39:44;;;;;;;28.17;16.60;;;9.90;99.90;;;;;;5012397;28;20026;-69
2020/12/16 09:42:12;;;;;;;27.13;15.75;;;10.10;99.90;;;;;;5014254;28;20506;-68
2020/12/16 09:44:38;;;;;;;25.65;14.70;;;10.10;99.90;;;;;;5012025;28;20038;-70
2020/12/16 09:47:11;;;;;;;25.52;14.40;;;10.10;99.90;;;;;;5010546;28;20036;-69
2020/12/16 09:49:38;;;;;;;24.48;14.15;;;10.10;99.90;;;;;;5012430;28;20041;-69
2020/12/16 09:52:03;;;;;;;22.73;14.05;;;10.40;99.90;;;;;;5012573;28;20022;-76
2020/12/16 09:54:32;;;;;;;25.48;15.00;;;10.50;99.90;;;;;;5012021;28;20064;-71
2020/12/16 09:57:10;;;;;;;28.75;16.05;;;10.50;99.90;;;;;;5014060;28;20026;-69
2020/12/16 09:59:36;;;;;;;26.33;15.15;;;10.70;99.90;;;;;;5012347;28;20061;-71
2020/12/16 10:02:04;;;;;;;27.20;16.20;;;10.60;99.90;;;;;;5012357;28;20033;-70
2020/12/16 10:04:30;;;;;;;28.27;15.80;;;10.60;99.90;;;;;;5010818;28;20104;-70
2020/12/16 10:06:55;;;;;;;29.65;15.55;;;10.80;99.90;;;;;;5012522;28;20345;-72
2020/12/16 10:09:21;;;;;;;30.65;15.85;;;10.80;99.90;;;;;;5012772;28;20141;-69
2020/12/16 10:11:48;;;;;;;25.58;15.40;;;10.70;99.90;;;;;;5012175;28;20084;-70
2020/12/16 10:14:17;;;;;;;26.42;15.88;;;10.80;99.90;;;;;;5011971;28;20026;-70
2020/12/16 10:16:47;;;;;;;29.08;16.95;;;10.80;99.90;;;;;;5012337;28;20034;-70
2020/12/16 10:19:14;;;;;;;28.23;16.98;;;10.90;99.90;;;;;;5011697;28;20125;-69
2020/12/16 10:21:40;;;;;;;29.13;17.37;;;11.00;99.90;;;;;;5012383;28;20026;-70
2020/12/16 10:24:06;;;;;;;25.55;16.38;;;11.10;99.90;;;;;;5012549;28;20268;-70
2020/12/16 10:26:32;;;;;;;26.98;16.10;;;11.30;99.90;;;;;;5012241;28;20100;-72
2020/12/16 10:28:57;;;;;;;28.27;15.77;;;11.40;99.90;;;;;;5011046;28;20072;-70
2020/12/16 10:31:23;;;;;;;29.38;16.77;;;11.40;99.90;;;;;;5011637;28;20034;-70
2020/12/16 10:33:49;;;;;;;31.67;17.27;;;11.30;99.90;;;;;;5011996;28;20070;-75
2020/12/16 10:36:14;;;;;;;35.45;17.73;;;11.30;99.90;;;;;;5013531;28;20028;-71
2020/12/16 10:38:40;;;;;;;26.98;15.15;;;11.20;99.90;;;;;;5011904;28;20062;-72
2020/12/16 10:41:06;;;;;;;33.95;18.25;;;11.30;99.90;;;;;;5010687;28;20034;-71
2020/12/16 10:43:31;;;;;;;31.60;17.88;;;11.40;99.90;;;;;;5011722;28;20034;-75
2020/12/16 10:45:57;;;;;;;30.88;18.35;;;11.50;99.90;;;;;;5011880;28;20038;-72
2020/12/16 10:48:22;;;;;;;29.13;16.90;;;11.30;99.90;;;;;;5013513;28;20030;-71
2020/12/16 10:50:50;;;;;;;27.20;17.45;;;11.30;99.90;;;;;;5012006;28;20045;-71
2020/12/16 10:53:16;;;;;;;28.50;16.67;;;11.30;99.90;;;;;;5011534;28;20045;-74
2020/12/16 10:55:42;;;;;;;31.10;17.92;;;11.40;99.90;;;;;;5011892;28;20034;-70
2020/12/16 10:58:07;;;;;;;32.10;19.13;;;11.60;99.90;;;;;;5011980;28;20448;-73
2020/12/16 11:00:33;;;;;;;28.15;16.42;;;11.60;99.90;;;;;;5011974;28;20029;-72
2020/12/16 11:02:58;;;;;;;24.50;14.70;;;11.60;99.90;;;;;;5013147;28;20041;-70
2020/12/16 11:05:24;;;;;;;25.10;14.75;;;11.80;99.90;;;;;;5011687;28;20057;-72
2020/12/16 11:07:50;;;;;;;25.65;15.27;;;11.80;99.90;;;;;;5011891;28;20048;-71
2020/12/16 11:10:16;;;;;;;23.88;14.15;;;11.90;99.90;;;;;;5010549;28;20368;-71
2020/12/16 11:12:41;;;;;;;26.20;16.48;;;12.00;99.90;;;;;;5011801;28;20026;-71
2020/12/16 11:15:07;;;;;;;26.58;15.65;;;12.00;99.90;;;;;;5012553;28;20030;-72
2020/12/16 11:17:33;;;;;;;23.23;14.35;;;12.10;99.90;;;;;;5010517;28;20120;-71
2020/12/16 11:19:59;;;;;;;23.33;14.57;;;12.10;99.90;;;;;;5014327;28;20423;-71
2020/12/16 11:22:24;;;;;;;21.30;13.75;;;12.20;99.90;;;;;;5015339;28;20337;-71
2020/12/16 11:24:50;;;;;;;25.42;13.82;;;12.20;99.90;;;;;;5015297;28;20527;-70
2020/12/16 11:27:16;;;;;;;26.13;15.07;;;12.30;99.90;;;;;;5016780;28;20052;-71
2020/12/16 11:29:48;;;;;;;29.88;15.80;;;12.30;99.90;;;;;;5015277;28;20070;-70
2020/12/16 11:32:15;;;;;;;21.90;13.68;;;12.40;99.90;;;;;;5013876;28;20087;-70
2020/12/16 11:34:40;;;;;;;21.20;12.73;;;12.50;99.90;;;;;;5014890;28;20199;-69
2020/12/16 11:37:07;;;;;;;24.60;13.70;;;12.70;99.70;;;;;;5015039;28;20086;-84
2020/12/16 11:39:32;;;;;;;19.73;12.77;;;13.00;99.50;;;;;;5013970;28;20092;-76
2020/12/16 11:41:58;;;;;;;26.17;14.18;;;13.40;99.20;;;;;;5016424;28;20081;-70
2020/12/16 11:44:25;;;;;;;20.67;13.38;;;13.60;98.70;;;;;;5015003;28;20046;-72
2020/12/16 11:46:52;;;;;;;24.95;12.93;;;13.80;98.60;;;;;;5013795;28;20042;-72
2020/12/16 11:49:18;;;;;;;20.45;11.63;;;14.20;98.40;;;;;;5014546;28;20034;-75
2020/12/16 11:51:44;;;;;;;20.92;12.93;;;14.40;98.20;;;;;;5014472;28;20038;-70
2020/12/16 11:54:10;;;;;;;18.30;12.68;;;14.40;97.50;;;;;;5016004;28;20069;-71
2020/12/16 11:56:36;;;;;;;20.55;13.07;;;14.50;97.50;;;;;;5013480;28;20033;-68
2020/12/16 11:59:04;;;;;;;25.90;12.93;;;14.50;97.40;;;;;;5013675;28;20065;-71
2020/12/16 12:01:30;;;;;;;24.55;13.68;;;14.30;97.00;;;;;;5013635;28;20364;-72
2020/12/16 12:03:56;;;;;;;23.13;12.75;;;14.30;97.50;;;;;;5014170;28;20460;-71
2020/12/16 12:06:21;;;;;;;18.90;12.75;;;14.40;97.30;;;;;;5016036;28;20034;-70
2020/12/16 12:08:47;;;;;;;23.45;12.45;;;14.60;97.00;;;;;;5013162;28;20045;-70
2020/12/16 12:11:16;;;;;;;24.60;14.05;;;14.50;96.80;;;;;;5014416;28;20037;-72
2020/12/16 12:13:42;;;;;;;23.65;13.20;;;14.50;96.70;;;;;;5014258;28;20033;-71
2020/12/16 12:16:13;;;;;;;24.45;13.40;;;14.50;97.10;;;;;;5014372;28;20029;-69
2020/12/16 12:18:39;;;;;;;23.50;13.63;;;14.40;97.00;;;;;;5014264;28;20100;-71
2020/12/16 12:21:09;;;;;;;22.40;13.45;;;14.50;96.80;;;;;;5015800;28;20029;-72
2020/12/16 12:23:35;;;;;;;20.00;12.82;;;14.40;96.90;;;;;;5012556;28;20456;-71
2020/12/16 12:26:02;;;;;;;17.90;12.15;;;14.40;97.00;;;;;;5013847;28;20050;-73
2020/12/16 12:28:28;;;;;;;21.80;13.00;;;14.50;97.00;;;;;;5012193;28;20069;-69
2020/12/16 12:30:54;;;;;;;22.98;13.60;;;14.50;96.90;;;;;;5013753;28;20084;-70
2020/12/16 12:33:19;;;;;;;19.33;12.35;;;14.40;97.00;;;;;;5015562;28;20544;-72
2020/12/16 12:35:46;;;;;;;21.77;12.68;;;14.50;96.60;;;;;;5014114;28;20046;-71
2020/12/16 12:38:12;;;;;;;18.30;11.80;;;14.50;96.60;;;;;;5013937;28;20068;-73
2020/12/16 12:40:37;;;;;;;18.95;11.90;;;14.60;96.60;;;;;;5013810;28;20093;-71